ΕΜΥ, Εθνική Μετεωρολογική Υπηρεσία - Δελτία Καιρού, Προγνώσεις

ΑΕΡΟΝΑΥΤΙΛΙΑ

GREEK AIRPORTS CODES

LGTG 201750Z 01004KT CAVOK 16/05 Q1022 RMK FEW090=

EUROPEAN AIRPORTS CODES

TAF LGEL 201700Z 2018/2118 35015KT 9999 FEW020 BECMG 2112/2115 16010KT=